Time;durP1;ratioP1;P1;durP2;ratioP2;P2;SDS_P1;SDS_P2;PMS_P1;PMS_P2;Temp;Humidity;BMP_temperature;BMP_pressure;BME280_temperature;BME280_humidity;BME280_pressure;Samples;Min_cycle;Max_cycle;Signal;HPM_P1;HPM_P2
2023/03/23 05:58:52;;;;;;;;;;;;;;;12.88;59.77;97360.41;5082547;22;19925;-63
2023/03/23 06:01:17;;;;;;;;;;;;;;;12.92;60.62;97360.94;5056973;28;19920;-63
2023/03/23 06:03:42;;;;;;;;;;;;;;;12.95;57.17;97365.94;5054238;28;19913;-63
2023/03/23 06:06:11;;;;;;;;;;;;;;;12.91;58.92;97362.75;5045369;28;19924;-64
2023/03/23 06:08:37;;;;;;;;;;;;;;;12.90;57.69;97370.78;5033930;28;20302;-64
2023/03/23 06:11:02;;;;;;;;;;;;;;;12.92;58.41;97369.69;5036501;28;19925;-64
2023/03/23 06:13:27;;;;;;;;;;;;;;;12.95;58.68;97364.13;5033664;28;19917;-64
2023/03/23 06:15:57;;;;;;;;;;;;;;;12.99;57.83;97369.94;5036055;28;19923;-65
2023/03/23 06:18:23;;;;;;;;;;;;;;;12.97;55.63;97358.72;5031760;28;19928;-64
2023/03/23 06:20:48;;;;;;;;;;;;;;;12.93;56.43;97360.78;5042657;28;20444;-64
2023/03/23 06:23:13;;;;;;;;;;;;;;;12.93;57.93;97366.06;5039827;28;19925;-64
2023/03/23 06:25:39;;;;;;;;;;;;;;;12.85;56.47;97368.56;5040745;28;19963;-64
2023/03/23 06:28:04;;;;;;;;;;;;;;;12.77;57.48;97365.81;5038331;28;19917;-64
2023/03/23 06:30:30;;;;;;;;;;;;;;;12.74;57.05;97366.09;5039092;28;19925;-64
2023/03/23 06:32:55;;;;;;;;;;;;;;;12.78;57.10;97363.03;5041302;28;19943;-64
2023/03/23 06:35:20;;;;;;;;;;;;;;;12.81;57.17;97367.19;5042008;28;19917;-65
2023/03/23 06:37:46;;;;;;;;;;;;;;;12.82;56.07;97364.41;5036239;28;19920;-65
2023/03/23 06:40:11;;;;;;;;;;;;;;;12.86;57.24;97364.13;5047797;28;19920;-64
2023/03/23 06:42:37;;;;;;;;;;;;;;;12.93;57.06;97373.97;5040609;28;19921;-64
2023/03/23 06:45:03;;;;;;;;;;;;;;;13.01;56.02;97373.28;5041648;28;20455;-64
2023/03/23 06:47:29;;;;;;;;;;;;;;;13.07;55.27;97376.19;5039315;28;20018;-64
2023/03/23 06:49:55;;;;;;;;;;;;;;;13.18;55.56;97374.34;5033117;28;19960;-65
2023/03/23 06:52:20;;;;;;;;;;;;;;;13.24;55.56;97374.63;5038845;28;19955;-65
2023/03/23 06:54:45;;;;;;;;;;;;;;;13.40;55.88;97376.69;5033632;28;19921;-65
2023/03/23 06:57:11;;;;;;;;;;;;;;;13.51;56.20;97379.13;5040021;28;19978;-65
2023/03/23 06:59:36;;;;;;;;;;;;;;;13.68;56.53;97377.56;5039639;28;19968;-65
2023/03/23 07:02:02;;;;;;;;;;;;;;;13.81;54.08;97371.97;5032555;28;19917;-65
2023/03/23 07:04:27;;;;;;;;;;;;;;;13.99;54.95;97379.91;5031317;28;19913;-66
2023/03/23 07:06:52;;;;;;;;;;;;;;;14.15;55.66;97379.28;5044266;28;19921;-65
2023/03/23 07:09:18;;;;;;;;;;;;;;;14.30;55.68;97382.25;5038066;28;20376;-66
2023/03/23 07:11:43;;;;;;;;;;;;;;;14.41;55.37;97384.66;5042333;28;19917;-68
2023/03/23 07:14:09;;;;;;;;;;;;;;;14.51;55.32;97379.38;5032373;28;19924;-68
2023/03/23 07:16:34;;;;;;;;;;;;;;;14.58;53.79;97390.97;5030965;28;19924;-66
2023/03/23 07:18:59;;;;;;;;;;;;;;;14.61;52.54;97390.69;5042818;28;19917;-66
2023/03/23 07:21:24;;;;;;;;;;;;;;;14.67;53.73;97396.19;5041051;28;19917;-65
2023/03/23 07:23:50;;;;;;;;;;;;;;;14.70;54.55;97398.53;5039383;28;20378;-65
2023/03/23 07:26:15;;;;;;;;;;;;;;;14.72;53.63;97403.66;5056256;28;20290;-65
2023/03/23 07:28:40;;;;;;;;;;;;;;;14.71;53.82;97396.72;5033708;28;19967;-64
2023/03/23 07:31:08;;;;;;;;;;;;;;;14.68;52.79;97407.56;5031967;28;19917;-65
2023/03/23 07:33:33;;;;;;;;;;;;;;;14.67;53.01;97405.91;5031109;28;19925;-66
2023/03/23 07:36:00;;;;;;;;;;;;;;;14.68;54.85;97402.28;5030582;28;20195;-65
2023/03/23 07:38:27;;;;;;;;;;;;;;;14.71;54.55;97410.75;5046717;28;20004;-66
2023/03/23 07:40:52;;;;;;;;;;;;;;;14.70;54.26;97410.91;5031007;28;19917;-65
2023/03/23 07:43:18;;;;;;;;;;;;;;;14.74;55.39;97417.53;5047275;28;19913;-65
2023/03/23 07:45:44;;;;;;;;;;;;;;;14.84;57.70;97414.81;5032906;28;19913;-66
2023/03/23 07:48:09;;;;;;;;;;;;;;;14.89;56.68;97410.72;5035535;28;19920;-65
2023/03/23 07:50:36;;;;;;;;;;;;;;;14.95;56.25;97418.06;5031609;28;19913;-65
2023/03/23 07:53:02;;;;;;;;;;;;;;;15.00;55.84;97412.31;5029622;28;20396;-64
2023/03/23 07:55:28;;;;;;;;;;;;;;;15.06;56.50;97421.44;5030613;28;19913;-64
2023/03/23 07:57:53;;;;;;;;;;;;;;;15.15;56.68;97416.09;5031501;28;20303;-65
2023/03/23 08:00:23;;;;;;;;;;;;;;;15.26;56.30;97417.66;5034674;28;20377;-63
2023/03/23 08:02:49;;;;;;;;;;;;;;;15.32;56.40;97416.22;5043351;28;19912;-65
2023/03/23 08:05:15;;;;;;;;;;;;;;;15.31;56.24;97420.66;5023231;28;19975;-63
